sensor_id;sensor_type;location;lat;lon;timestamp;temperature;humidity
69895;DHT22;57172;52.034;5.090;2022-09-09T00:02:08;16.10;77.70
69895;DHT22;57172;52.034;5.090;2022-09-09T00:04:38;16.10;77.80
69895;DHT22;57172;52.034;5.090;2022-09-09T00:10:00;16.10;78.00
69895;DHT22;57172;52.034;5.090;2022-09-09T00:15:34;16.00;78.40
69895;DHT22;57172;52.034;5.090;2022-09-09T00:18:29;16.00;78.20
69895;DHT22;57172;52.034;5.090;2022-09-09T00:21:13;15.90;78.30
69895;DHT22;57172;52.034;5.090;2022-09-09T00:23:54;15.90;78.30
69895;DHT22;57172;52.034;5.090;2022-09-09T00:26:44;15.90;78.50
69895;DHT22;57172;52.034;5.090;2022-09-09T00:29:40;15.90;78.60
69895;DHT22;57172;52.034;5.090;2022-09-09T00:32:16;15.80;78.80
69895;DHT22;57172;52.034;5.090;2022-09-09T00:34:52;15.80;78.70
69895;DHT22;57172;52.034;5.090;2022-09-09T00:37:21;15.70;78.80
69895;DHT22;57172;52.034;5.090;2022-09-09T00:39:49;15.70;78.70
69895;DHT22;57172;52.034;5.090;2022-09-09T00:47:50;15.60;78.90
69895;DHT22;57172;52.034;5.090;2022-09-09T00:50:45;15.60;79.00
69895;DHT22;57172;52.034;5.090;2022-09-09T00:53:54;15.60;79.00
69895;DHT22;57172;52.034;5.090;2022-09-09T00:56:37;15.50;79.10
69895;DHT22;57172;52.034;5.090;2022-09-09T01:01:54;15.50;79.00
69895;DHT22;57172;52.034;5.090;2022-09-09T01:04:34;15.40;79.60
69895;DHT22;57172;52.034;5.090;2022-09-09T01:07:15;15.40;79.30
69895;DHT22;57172;52.034;5.090;2022-09-09T01:09:56;15.40;79.40
69895;DHT22;57172;52.034;5.090;2022-09-09T01:12:31;15.40;79.40
69895;DHT22;57172;52.034;5.090;2022-09-09T01:15:08;15.40;79.40
69895;DHT22;57172;52.034;5.090;2022-09-09T01:20:17;15.30;79.70
69895;DHT22;57172;52.034;5.090;2022-09-09T01:22:57;15.30;79.80
69895;DHT22;57172;52.034;5.090;2022-09-09T01:28:22;15.30;79.80
69895;DHT22;57172;52.034;5.090;2022-09-09T01:30:54;15.30;79.50
69895;DHT22;57172;52.034;5.090;2022-09-09T01:33:24;15.30;79.60
69895;DHT22;57172;52.034;5.090;2022-09-09T01:38:24;15.20;79.60
69895;DHT22;57172;52.034;5.090;2022-09-09T01:40:53;15.20;79.60
69895;DHT22;57172;52.034;5.090;2022-09-09T01:43:25;15.20;79.70
69895;DHT22;57172;52.034;5.090;2022-09-09T01:45:55;15.20;79.60
69895;DHT22;57172;52.034;5.090;2022-09-09T01:48:24;15.20;79.30
69895;DHT22;57172;52.034;5.090;2022-09-09T01:51:00;15.20;79.30
69895;DHT22;57172;52.034;5.090;2022-09-09T01:53:27;15.20;79.40
69895;DHT22;57172;52.034;5.090;2022-09-09T02:01:26;15.20;79.70
69895;DHT22;57172;52.034;5.090;2022-09-09T02:04:03;15.20;79.60
69895;DHT22;57172;52.034;5.090;2022-09-09T02:06:37;15.20;79.70
69895;DHT22;57172;52.034;5.090;2022-09-09T02:09:18;15.20;79.90
69895;DHT22;57172;52.034;5.090;2022-09-09T02:11:47;15.20;79.90
69895;DHT22;57172;52.034;5.090;2022-09-09T02:14:30;15.20;79.90
69895;DHT22;57172;52.034;5.090;2022-09-09T02:17:06;15.20;79.80
69895;DHT22;57172;52.034;5.090;2022-09-09T02:20:00;15.20;79.80
69895;DHT22;57172;52.034;5.090;2022-09-09T02:23:08;15.20;79.90
69895;DHT22;57172;52.034;5.090;2022-09-09T02:25:37;15.20;80.00
69895;DHT22;57172;52.034;5.090;2022-09-09T02:28:17;15.20;80.10
69895;DHT22;57172;52.034;5.090;2022-09-09T02:30:45;15.20;80.10
69895;DHT22;57172;52.034;5.090;2022-09-09T02:33:15;15.10;80.10
69895;DHT22;57172;52.034;5.090;2022-09-09T02:35:46;15.20;79.80
69895;DHT22;57172;52.034;5.090;2022-09-09T02:38:17;15.20;80.10
69895;DHT22;57172;52.034;5.090;2022-09-09T02:40:55;15.10;80.10
69895;DHT22;57172;52.034;5.090;2022-09-09T02:43:22;15.10;80.10
69895;DHT22;57172;52.034;5.090;2022-09-09T02:46:11;15.10;80.00
69895;DHT22;57172;52.034;5.090;2022-09-09T02:49:09;15.20;80.00
69895;DHT22;57172;52.034;5.090;2022-09-09T02:51:53;15.20;79.70
69895;DHT22;57172;52.034;5.090;2022-09-09T02:54:30;15.20;79.60
69895;DHT22;57172;52.034;5.090;2022-09-09T02:57:23;15.20;79.40
69895;DHT22;57172;52.034;5.090;2022-09-09T02:59:51;15.20;79.30
69895;DHT22;57172;52.034;5.090;2022-09-09T03:02:19;15.20;79.30
69895;DHT22;57172;52.034;5.090;2022-09-09T03:04:52;15.20;79.30
69895;DHT22;57172;52.034;5.090;2022-09-09T03:07:19;15.10;79.10
69895;DHT22;57172;52.034;5.090;2022-09-09T03:09:48;15.10;79.10
69895;DHT22;57172;52.034;5.090;2022-09-09T03:12:16;15.20;79.00
69895;DHT22;57172;52.034;5.090;2022-09-09T03:14:43;15.10;79.10
69895;DHT22;57172;52.034;5.090;2022-09-09T03:17:12;15.10;79.10
69895;DHT22;57172;52.034;5.090;2022-09-09T03:19:46;15.10;79.20
69895;DHT22;57172;52.034;5.090;2022-09-09T03:22:13;15.10;79.50
69895;DHT22;57172;52.034;5.090;2022-09-09T03:24:41;15.00;79.50
69895;DHT22;57172;52.034;5.090;2022-09-09T03:27:08;15.00;79.40
69895;DHT22;57172;52.034;5.090;2022-09-09T03:29:37;15.00;79.30
69895;DHT22;57172;52.034;5.090;2022-09-09T03:32:07;15.00;79.70
69895;DHT22;57172;52.034;5.090;2022-09-09T03:34:37;15.00;79.60
69895;DHT22;57172;52.034;5.090;2022-09-09T03:37:10;15.00;79.50
69895;DHT22;57172;52.034;5.090;2022-09-09T03:39:38;15.00;79.50
69895;DHT22;57172;52.034;5.090;2022-09-09T03:42:06;15.00;79.80
69895;DHT22;57172;52.034;5.090;2022-09-09T03:44:33;14.90;80.20
69895;DHT22;57172;52.034;5.090;2022-09-09T03:47:00;14.90;80.30
69895;DHT22;57172;52.034;5.090;2022-09-09T03:49:27;14.90;80.20
69895;DHT22;57172;52.034;5.090;2022-09-09T03:51:59;14.90;80.40
69895;DHT22;57172;52.034;5.090;2022-09-09T03:54:28;14.90;80.30
69895;DHT22;57172;52.034;5.090;2022-09-09T03:56:55;14.90;80.20
69895;DHT22;57172;52.034;5.090;2022-09-09T03:59:22;14.90;80.60
69895;DHT22;57172;52.034;5.090;2022-09-09T04:01:49;14.90;80.60
69895;DHT22;57172;52.034;5.090;2022-09-09T04:04:16;14.90;80.80
69895;DHT22;57172;52.034;5.090;2022-09-09T04:06:43;14.90;80.70
69895;DHT22;57172;52.034;5.090;2022-09-09T04:09:11;14.90;80.70
69895;DHT22;57172;52.034;5.090;2022-09-09T04:11:38;14.90;80.60
69895;DHT22;57172;52.034;5.090;2022-09-09T04:14:05;15.00;80.40
69895;DHT22;57172;52.034;5.090;2022-09-09T04:16:33;15.00;80.40
69895;DHT22;57172;52.034;5.090;2022-09-09T04:19:02;15.00;80.30
69895;DHT22;57172;52.034;5.090;2022-09-09T04:21:31;15.00;80.30
69895;DHT22;57172;52.034;5.090;2022-09-09T04:23:59;15.00;80.30
69895;DHT22;57172;52.034;5.090;2022-09-09T04:26:26;15.00;80.10
69895;DHT22;57172;52.034;5.090;2022-09-09T04:28:53;15.00;79.90
69895;DHT22;57172;52.034;5.090;2022-09-09T04:31:22;15.00;79.90
69895;DHT22;57172;52.034;5.090;2022-09-09T04:33:53;15.00;80.00
69895;DHT22;57172;52.034;5.090;2022-09-09T04:36:21;14.90;80.10
69895;DHT22;57172;52.034;5.090;2022-09-09T04:38:50;15.00;80.00
69895;DHT22;57172;52.034;5.090;2022-09-09T04:41:17;14.90;80.00
69895;DHT22;57172;52.034;5.090;2022-09-09T04:43:47;14.90;80.60
69895;DHT22;57172;52.034;5.090;2022-09-09T04:46:15;14.90;80.40
69895;DHT22;57172;52.034;5.090;2022-09-09T04:48:48;14.80;80.50
69895;DHT22;57172;52.034;5.090;2022-09-09T04:51:16;14.80;80.70
69895;DHT22;57172;52.034;5.090;2022-09-09T04:53:45;14.80;80.70
69895;DHT22;57172;52.034;5.090;2022-09-09T04:56:16;14.80;80.80
69895;DHT22;57172;52.034;5.090;2022-09-09T04:58:52;14.80;80.90
69895;DHT22;57172;52.034;5.090;2022-09-09T05:01:23;14.80;80.90
69895;DHT22;57172;52.034;5.090;2022-09-09T05:03:52;14.80;81.00
69895;DHT22;57172;52.034;5.090;2022-09-09T05:06:23;14.80;81.00
69895;DHT22;57172;52.034;5.090;2022-09-09T05:08:54;14.80;80.80
69895;DHT22;57172;52.034;5.090;2022-09-09T05:11:30;14.80;80.90
69895;DHT22;57172;52.034;5.090;2022-09-09T05:14:04;14.80;81.00
69895;DHT22;57172;52.034;5.090;2022-09-09T05:16:31;14.80;81.20
69895;DHT22;57172;52.034;5.090;2022-09-09T05:18:58;14.80;81.00
69895;DHT22;57172;52.034;5.090;2022-09-09T05:21:33;14.80;81.10
69895;DHT22;57172;52.034;5.090;2022-09-09T05:24:00;14.80;81.20
69895;DHT22;57172;52.034;5.090;2022-09-09T05:26:27;14.90;81.20
69895;DHT22;57172;52.034;5.090;2022-09-09T05:28:56;14.90;81.30
69895;DHT22;57172;52.034;5.090;2022-09-09T05:31:23;14.90;81.20
69895;DHT22;57172;52.034;5.090;2022-09-09T05:33:52;14.90;81.10
69895;DHT22;57172;52.034;5.090;2022-09-09T05:36:21;15.00;81.00
69895;DHT22;57172;52.034;5.090;2022-09-09T05:38:53;15.00;81.00
69895;DHT22;57172;52.034;5.090;2022-09-09T05:41:20;15.00;81.10
69895;DHT22;57172;52.034;5.090;2022-09-09T05:43:51;15.00;81.00
69895;DHT22;57172;52.034;5.090;2022-09-09T05:46:21;15.10;81.20
69895;DHT22;57172;52.034;5.090;2022-09-09T05:48:51;15.10;81.30
69895;DHT22;57172;52.034;5.090;2022-09-09T05:51:23;15.10;81.30
69895;DHT22;57172;52.034;5.090;2022-09-09T05:53:51;15.10;81.60
69895;DHT22;57172;52.034;5.090;2022-09-09T05:56:23;15.10;81.80
69895;DHT22;57172;52.034;5.090;2022-09-09T05:58:52;15.10;82.00
69895;DHT22;57172;52.034;5.090;2022-09-09T06:01:30;15.20;81.90
69895;DHT22;57172;52.034;5.090;2022-09-09T06:03:58;15.20;81.90
69895;DHT22;57172;52.034;5.090;2022-09-09T06:06:27;15.20;81.90
69895;DHT22;57172;52.034;5.090;2022-09-09T06:08:57;15.30;81.80
69895;DHT22;57172;52.034;5.090;2022-09-09T06:11:30;15.30;81.80
69895;DHT22;57172;52.034;5.090;2022-09-09T06:13:59;15.40;81.80
69895;DHT22;57172;52.034;5.090;2022-09-09T06:16:28;15.50;81.90
69895;DHT22;57172;52.034;5.090;2022-09-09T06:18:56;15.60;81.90
69895;DHT22;57172;52.034;5.090;2022-09-09T06:21:27;15.70;81.50
69895;DHT22;57172;52.034;5.090;2022-09-09T06:23:54;15.70;81.00
69895;DHT22;57172;52.034;5.090;2022-09-09T06:26:31;15.80;81.10
69895;DHT22;57172;52.034;5.090;2022-09-09T06:29:01;15.80;80.90
69895;DHT22;57172;52.034;5.090;2022-09-09T06:31:32;15.90;80.80
69895;DHT22;57172;52.034;5.090;2022-09-09T06:34:07;15.90;80.60
69895;DHT22;57172;52.034;5.090;2022-09-09T06:36:38;15.90;80.40
69895;DHT22;57172;52.034;5.090;2022-09-09T06:39:06;16.00;80.40
69895;DHT22;57172;52.034;5.090;2022-09-09T06:41:41;16.00;80.60
69895;DHT22;57172;52.034;5.090;2022-09-09T06:44:21;16.10;80.50
69895;DHT22;57172;52.034;5.090;2022-09-09T06:46:49;16.20;80.20
69895;DHT22;57172;52.034;5.090;2022-09-09T06:49:16;16.30;80.10
69895;DHT22;57172;52.034;5.090;2022-09-09T06:51:45;16.40;79.80
69895;DHT22;57172;52.034;5.090;2022-09-09T06:54:13;16.50;79.50
69895;DHT22;57172;52.034;5.090;2022-09-09T06:56:43;16.60;79.70
69895;DHT22;57172;52.034;5.090;2022-09-09T06:59:19;16.80;78.90
69895;DHT22;57172;52.034;5.090;2022-09-09T07:01:47;16.90;78.50
69895;DHT22;57172;52.034;5.090;2022-09-09T07:04:21;16.90;77.90
69895;DHT22;57172;52.034;5.090;2022-09-09T07:06:48;17.00;77.80
69895;DHT22;57172;52.034;5.090;2022-09-09T07:09:21;17.20;78.10
69895;DHT22;57172;52.034;5.090;2022-09-09T07:11:51;17.30;76.70
69895;DHT22;57172;52.034;5.090;2022-09-09T07:14:22;17.30;77.20
69895;DHT22;57172;52.034;5.090;2022-09-09T07:16:59;17.50;76.70
69895;DHT22;57172;52.034;5.090;2022-09-09T07:19:31;17.60;76.10
69895;DHT22;57172;52.034;5.090;2022-09-09T07:21:58;17.60;75.80
69895;DHT22;57172;52.034;5.090;2022-09-09T07:24:26;17.60;75.10
69895;DHT22;57172;52.034;5.090;2022-09-09T07:26:55;17.60;75.10
69895;DHT22;57172;52.034;5.090;2022-09-09T07:29:22;17.60;74.70
69895;DHT22;57172;52.034;5.090;2022-09-09T07:31:50;17.50;74.60
69895;DHT22;57172;52.034;5.090;2022-09-09T07:34:22;17.50;74.90
69895;DHT22;57172;52.034;5.090;2022-09-09T07:36:50;17.50;74.90
69895;DHT22;57172;52.034;5.090;2022-09-09T07:39:17;17.50;74.60
69895;DHT22;57172;52.034;5.090;2022-09-09T07:41:49;17.40;74.40
69895;DHT22;57172;52.034;5.090;2022-09-09T07:44:21;17.50;74.60
69895;DHT22;57172;52.034;5.090;2022-09-09T07:46:52;17.50;74.70
69895;DHT22;57172;52.034;5.090;2022-09-09T07:49:25;17.50;74.50
69895;DHT22;57172;52.034;5.090;2022-09-09T07:51:59;17.50;74.50
69895;DHT22;57172;52.034;5.090;2022-09-09T07:54:27;17.40;74.50
69895;DHT22;57172;52.034;5.090;2022-09-09T07:56:54;17.40;74.20
69895;DHT22;57172;52.034;5.090;2022-09-09T07:59:24;17.40;74.30
69895;DHT22;57172;52.034;5.090;2022-09-09T08:01:52;17.40;74.20
69895;DHT22;57172;52.034;5.090;2022-09-09T08:04:25;17.40;74.40
69895;DHT22;57172;52.034;5.090;2022-09-09T08:06:58;17.50;74.50
69895;DHT22;57172;52.034;5.090;2022-09-09T08:09:28;17.60;74.40
69895;DHT22;57172;52.034;5.090;2022-09-09T08:12:08;17.60;74.20
69895;DHT22;57172;52.034;5.090;2022-09-09T08:14:35;17.70;73.80
69895;DHT22;57172;52.034;5.090;2022-09-09T08:17:02;17.70;73.80
69895;DHT22;57172;52.034;5.090;2022-09-09T08:19:31;17.70;73.70
69895;DHT22;57172;52.034;5.090;2022-09-09T08:22:02;17.80;73.90
69895;DHT22;57172;52.034;5.090;2022-09-09T08:24:31;18.00;73.80
69895;DHT22;57172;52.034;5.090;2022-09-09T08:26:57;18.10;72.70
69895;DHT22;57172;52.034;5.090;2022-09-09T08:29:25;18.20;71.90
69895;DHT22;57172;52.034;5.090;2022-09-09T08:31:56;18.10;71.70
69895;DHT22;57172;52.034;5.090;2022-09-09T08:34:25;18.10;71.70
69895;DHT22;57172;52.034;5.090;2022-09-09T08:36:55;18.10;71.70
69895;DHT22;57172;52.034;5.090;2022-09-09T08:39:28;18.10;71.70
69895;DHT22;57172;52.034;5.090;2022-09-09T08:42:05;18.10;71.70
69895;DHT22;57172;52.034;5.090;2022-09-09T08:47:28;18.10;71.80
69895;DHT22;57172;52.034;5.090;2022-09-09T08:50:21;18.10;71.90
69895;DHT22;57172;52.034;5.090;2022-09-09T08:55:49;18.00;72.20
69895;DHT22;57172;52.034;5.090;2022-09-09T08:58:29;17.90;72.10
69895;DHT22;57172;52.034;5.090;2022-09-09T09:09:08;18.10;71.80
69895;DHT22;57172;52.034;5.090;2022-09-09T09:11:44;18.10;71.70
69895;DHT22;57172;52.034;5.090;2022-09-09T09:14:30;18.10;71.70
69895;DHT22;57172;52.034;5.090;2022-09-09T09:17:11;18.00;71.60
69895;DHT22;57172;52.034;5.090;2022-09-09T09:19:41;18.00;71.80
69895;DHT22;57172;52.034;5.090;2022-09-09T09:25:55;18.10;71.70
69895;DHT22;57172;52.034;5.090;2022-09-09T09:28:16;18.00;71.50
69895;DHT22;57172;52.034;5.090;2022-09-09T09:30:54;18.00;72.60
69895;DHT22;57172;52.034;5.090;2022-09-09T09:35:56;17.60;74.30
69895;DHT22;57172;52.034;5.090;2022-09-09T09:38:25;17.40;75.30
69895;DHT22;57172;52.034;5.090;2022-09-09T09:41:13;17.30;75.70
69895;DHT22;57172;52.034;5.090;2022-09-09T09:43:41;17.30;75.90
69895;DHT22;57172;52.034;5.090;2022-09-09T09:46:24;17.30;76.20
69895;DHT22;57172;52.034;5.090;2022-09-09T09:49:01;17.40;76.40
69895;DHT22;57172;52.034;5.090;2022-09-09T09:51:31;17.50;76.40
69895;DHT22;57172;52.034;5.090;2022-09-09T09:54:24;17.50;75.90
69895;DHT22;57172;52.034;5.090;2022-09-09T09:57:14;17.60;76.10
69895;DHT22;57172;52.034;5.090;2022-09-09T09:59:45;17.70;75.60
69895;DHT22;57172;52.034;5.090;2022-09-09T10:02:25;17.80;75.60
69895;DHT22;57172;52.034;5.090;2022-09-09T10:07:28;17.80;75.00
69895;DHT22;57172;52.034;5.090;2022-09-09T10:09:56;17.60;75.40
69895;DHT22;57172;52.034;5.090;2022-09-09T10:17:59;17.20;79.90
69895;DHT22;57172;52.034;5.090;2022-09-09T10:32:02;18.70;80.50
69895;DHT22;57172;52.034;5.090;2022-09-09T10:34:57;19.10;78.80
69895;DHT22;57172;52.034;5.090;2022-09-09T10:40:34;19.20;75.10
69895;DHT22;57172;52.034;5.090;2022-09-09T10:46:26;19.30;74.10
69895;DHT22;57172;52.034;5.090;2022-09-09T10:49:08;19.20;73.70
69895;DHT22;57172;52.034;5.090;2022-09-09T10:57:36;19.70;73.40
69895;DHT22;57172;52.034;5.090;2022-09-09T11:03:00;19.60;70.60
69895;DHT22;57172;52.034;5.090;2022-09-09T11:05:49;19.30;71.20
69895;DHT22;57172;52.034;5.090;2022-09-09T11:08:27;19.10;71.20
69895;DHT22;57172;52.034;5.090;2022-09-09T11:21:52;18.80;73.70
69895;DHT22;57172;52.034;5.090;2022-09-09T11:24:32;18.70;73.70
69895;DHT22;57172;52.034;5.090;2022-09-09T11:40:28;18.30;75.20
69895;DHT22;57172;52.034;5.090;2022-09-09T11:43:16;18.30;75.70
69895;DHT22;57172;52.034;5.090;2022-09-09T11:45:54;18.10;76.40
69895;DHT22;57172;52.034;5.090;2022-09-09T11:48:41;18.00;76.50
69895;DHT22;57172;52.034;5.090;2022-09-09T11:54:03;17.90;77.00
69895;DHT22;57172;52.034;5.090;2022-09-09T11:56:49;17.90;77.10
69895;DHT22;57172;52.034;5.090;2022-09-09T11:59:26;17.80;77.40
69895;DHT22;57172;52.034;5.090;2022-09-09T12:02:18;17.70;78.20
69895;DHT22;57172;52.034;5.090;2022-09-09T12:04:54;17.80;78.40
69895;DHT22;57172;52.034;5.090;2022-09-09T12:12:46;18.10;78.10
69895;DHT22;57172;52.034;5.090;2022-09-09T12:15:23;18.10;77.60
69895;DHT22;57172;52.034;5.090;2022-09-09T12:17:53;18.20;78.30
69895;DHT22;57172;52.034;5.090;2022-09-09T12:30:29;19.30;74.30
69895;DHT22;57172;52.034;5.090;2022-09-09T12:32:25;19.90;75.90
69895;DHT22;57172;52.034;5.090;2022-09-09T12:38:02;20.80;69.00
69895;DHT22;57172;52.034;5.090;2022-09-09T12:40:32;20.90;69.50
69895;DHT22;57172;52.034;5.090;2022-09-09T12:43:16;21.10;68.80
69895;DHT22;57172;52.034;5.090;2022-09-09T12:45:43;21.20;68.60
69895;DHT22;57172;52.034;5.090;2022-09-09T12:48:12;21.20;66.50
69895;DHT22;57172;52.034;5.090;2022-09-09T12:50:49;21.00;65.80
69895;DHT22;57172;52.034;5.090;2022-09-09T12:53:26;20.60;67.20
69895;DHT22;57172;52.034;5.090;2022-09-09T12:55:59;20.60;67.00
69895;DHT22;57172;52.034;5.090;2022-09-09T12:58:27;20.50;67.40
69895;DHT22;57172;52.034;5.090;2022-09-09T13:01:00;20.40;67.50
69895;DHT22;57172;52.034;5.090;2022-09-09T13:03:28;20.10;67.70
69895;DHT22;57172;52.034;5.090;2022-09-09T13:05:58;20.00;68.40
69895;DHT22;57172;52.034;5.090;2022-09-09T13:08:26;19.90;69.00
69895;DHT22;57172;52.034;5.090;2022-09-09T13:11:00;19.90;69.10
69895;DHT22;57172;52.034;5.090;2022-09-09T13:13:37;19.90;69.20
69895;DHT22;57172;52.034;5.090;2022-09-09T13:16:17;19.90;68.60
69895;DHT22;57172;52.034;5.090;2022-09-09T13:18:45;19.80;69.20
69895;DHT22;57172;52.034;5.090;2022-09-09T13:21:13;19.80;69.80
69895;DHT22;57172;52.034;5.090;2022-09-09T13:23:40;19.70;70.10
69895;DHT22;57172;52.034;5.090;2022-09-09T13:26:25;19.60;70.60
69895;DHT22;57172;52.034;5.090;2022-09-09T13:28:53;19.50;70.90
69895;DHT22;57172;52.034;5.090;2022-09-09T13:31:28;19.60;71.20
69895;DHT22;57172;52.034;5.090;2022-09-09T13:33:55;19.70;71.00
69895;DHT22;57172;52.034;5.090;2022-09-09T13:36:33;19.70;70.90
69895;DHT22;57172;52.034;5.090;2022-09-09T13:39:03;19.60;71.00
69895;DHT22;57172;52.034;5.090;2022-09-09T13:41:33;19.40;71.40
69895;DHT22;57172;52.034;5.090;2022-09-09T13:44:02;19.30;72.50
69895;DHT22;57172;52.034;5.090;2022-09-09T13:46:34;19.00;72.80
69895;DHT22;57172;52.034;5.090;2022-09-09T13:49:22;18.80;73.70
69895;DHT22;57172;52.034;5.090;2022-09-09T13:52:09;18.50;75.10
69895;DHT22;57172;52.034;5.090;2022-09-09T13:54:38;18.30;75.70
69895;DHT22;57172;52.034;5.090;2022-09-09T13:57:16;18.20;76.30
69895;DHT22;57172;52.034;5.090;2022-09-09T13:59:45;18.10;77.00
69895;DHT22;57172;52.034;5.090;2022-09-09T14:02:30;18.00;77.20
69895;DHT22;57172;52.034;5.090;2022-09-09T14:04:57;17.80;78.30
69895;DHT22;57172;52.034;5.090;2022-09-09T14:07:24;17.70;78.80
69895;DHT22;57172;52.034;5.090;2022-09-09T14:09:51;17.60;79.20
69895;DHT22;57172;52.034;5.090;2022-09-09T14:12:19;17.60;80.00
69895;DHT22;57172;52.034;5.090;2022-09-09T14:14:46;17.60;80.80
69895;DHT22;57172;52.034;5.090;2022-09-09T14:17:13;17.60;81.40
69895;DHT22;57172;52.034;5.090;2022-09-09T14:19:40;17.80;82.00
69895;DHT22;57172;52.034;5.090;2022-09-09T14:22:07;18.00;81.50
69895;DHT22;57172;52.034;5.090;2022-09-09T14:24:34;18.10;80.70
69895;DHT22;57172;52.034;5.090;2022-09-09T14:27:01;18.20;81.60
69895;DHT22;57172;52.034;5.090;2022-09-09T14:29:28;18.50;84.20
69895;DHT22;57172;52.034;5.090;2022-09-09T14:31:55;19.20;84.90
69895;DHT22;57172;52.034;5.090;2022-09-09T14:34:22;19.90;83.40
69895;DHT22;57172;52.034;5.090;2022-09-09T14:36:49;20.20;78.20
69895;DHT22;57172;52.034;5.090;2022-09-09T14:39:16;20.40;74.00
69895;DHT22;57172;52.034;5.090;2022-09-09T14:41:43;20.30;72.90
69895;DHT22;57172;52.034;5.090;2022-09-09T14:44:09;20.10;71.70
69895;DHT22;57172;52.034;5.090;2022-09-09T14:46:36;20.10;72.60
69895;DHT22;57172;52.034;5.090;2022-09-09T14:49:03;20.10;71.20
69895;DHT22;57172;52.034;5.090;2022-09-09T14:51:31;20.00;70.50
69895;DHT22;57172;52.034;5.090;2022-09-09T14:53:59;19.80;70.50
69895;DHT22;57172;52.034;5.090;2022-09-09T14:56:29;19.70;71.00
69895;DHT22;57172;52.034;5.090;2022-09-09T14:58:58;19.60;71.10
69895;DHT22;57172;52.034;5.090;2022-09-09T15:01:25;19.40;71.60
69895;DHT22;57172;52.034;5.090;2022-09-09T15:03:56;19.30;72.40
69895;DHT22;57172;52.034;5.090;2022-09-09T15:06:26;19.30;72.30
69895;DHT22;57172;52.034;5.090;2022-09-09T15:08:53;19.10;72.50
69895;DHT22;57172;52.034;5.090;2022-09-09T15:11:21;19.10;73.00
69895;DHT22;57172;52.034;5.090;2022-09-09T15:13:51;19.10;73.10
69895;DHT22;57172;52.034;5.090;2022-09-09T15:16:24;19.00;72.90
69895;DHT22;57172;52.034;5.090;2022-09-09T15:18:52;19.00;73.20
69895;DHT22;57172;52.034;5.090;2022-09-09T15:21:23;19.00;73.00
69895;DHT22;57172;52.034;5.090;2022-09-09T15:23:50;19.00;72.90
69895;DHT22;57172;52.034;5.090;2022-09-09T15:26:18;19.10;73.00
69895;DHT22;57172;52.034;5.090;2022-09-09T15:28:46;19.20;72.60
69895;DHT22;57172;52.034;5.090;2022-09-09T15:31:14;19.20;72.60
69895;DHT22;57172;52.034;5.090;2022-09-09T15:34:04;19.30;71.80
69895;DHT22;57172;52.034;5.090;2022-09-09T15:36:37;19.40;72.40
69895;DHT22;57172;52.034;5.090;2022-09-09T15:39:06;19.50;72.20
69895;DHT22;57172;52.034;5.090;2022-09-09T15:41:34;19.60;72.00
69895;DHT22;57172;52.034;5.090;2022-09-09T15:44:01;19.70;71.60
69895;DHT22;57172;52.034;5.090;2022-09-09T15:46:32;19.70;71.50
69895;DHT22;57172;52.034;5.090;2022-09-09T15:49:03;19.80;71.50
69895;DHT22;57172;52.034;5.090;2022-09-09T15:51:30;19.80;70.20
69895;DHT22;57172;52.034;5.090;2022-09-09T15:54:17;19.70;70.40
69895;DHT22;57172;52.034;5.090;2022-09-09T15:56:46;19.80;70.00
69895;DHT22;57172;52.034;5.090;2022-09-09T15:59:15;19.80;69.50
69895;DHT22;57172;52.034;5.090;2022-09-09T16:01:42;19.70;69.40
69895;DHT22;57172;52.034;5.090;2022-09-09T16:04:09;19.70;69.70
69895;DHT22;57172;52.034;5.090;2022-09-09T16:06:36;19.70;70.00
69895;DHT22;57172;52.034;5.090;2022-09-09T16:09:05;19.80;69.60
69895;DHT22;57172;52.034;5.090;2022-09-09T16:11:35;19.80;69.20
69895;DHT22;57172;52.034;5.090;2022-09-09T16:14:03;19.70;69.40
69895;DHT22;57172;52.034;5.090;2022-09-09T16:16:31;19.70;69.50
69895;DHT22;57172;52.034;5.090;2022-09-09T16:19:02;19.60;69.70
69895;DHT22;57172;52.034;5.090;2022-09-09T16:21:41;19.60;70.60
69895;DHT22;57172;52.034;5.090;2022-09-09T16:24:11;19.90;71.50
69895;DHT22;57172;52.034;5.090;2022-09-09T16:26:42;20.30;70.60
69895;DHT22;57172;52.034;5.090;2022-09-09T16:29:13;20.60;69.60
69895;DHT22;57172;52.034;5.090;2022-09-09T16:31:41;20.80;67.70
69895;DHT22;57172;52.034;5.090;2022-09-09T16:34:09;20.80;67.60
69895;DHT22;57172;52.034;5.090;2022-09-09T16:36:37;20.60;67.10
69895;DHT22;57172;52.034;5.090;2022-09-09T16:39:08;20.50;67.30
69895;DHT22;57172;52.034;5.090;2022-09-09T16:41:36;20.30;67.70
69895;DHT22;57172;52.034;5.090;2022-09-09T16:44:05;20.10;68.00
69895;DHT22;57172;52.034;5.090;2022-09-09T16:46:35;20.00;68.40
69895;DHT22;57172;52.034;5.090;2022-09-09T16:49:04;19.90;68.80
69895;DHT22;57172;52.034;5.090;2022-09-09T16:51:37;19.80;69.00
69895;DHT22;57172;52.034;5.090;2022-09-09T16:54:06;19.80;69.30
69895;DHT22;57172;52.034;5.090;2022-09-09T16:56:36;19.80;69.70
69895;DHT22;57172;52.034;5.090;2022-09-09T16:59:06;19.70;69.90
69895;DHT22;57172;52.034;5.090;2022-09-09T17:01:36;19.70;70.20
69895;DHT22;57172;52.034;5.090;2022-09-09T17:04:10;19.70;70.20
69895;DHT22;57172;52.034;5.090;2022-09-09T17:06:37;19.70;70.20
69895;DHT22;57172;52.034;5.090;2022-09-09T17:09:10;19.70;70.30
69895;DHT22;57172;52.034;5.090;2022-09-09T17:11:38;19.70;70.40
69895;DHT22;57172;52.034;5.090;2022-09-09T17:14:07;19.70;70.10
69895;DHT22;57172;52.034;5.090;2022-09-09T17:16:35;19.60;70.10
69895;DHT22;57172;52.034;5.090;2022-09-09T17:19:03;19.60;70.10
69895;DHT22;57172;52.034;5.090;2022-09-09T17:21:32;19.60;70.20
69895;DHT22;57172;52.034;5.090;2022-09-09T17:23:59;19.60;70.30
69895;DHT22;57172;52.034;5.090;2022-09-09T17:26:30;19.60;70.30
69895;DHT22;57172;52.034;5.090;2022-09-09T17:28:57;19.60;70.10
69895;DHT22;57172;52.034;5.090;2022-09-09T17:31:28;19.60;70.10
69895;DHT22;57172;52.034;5.090;2022-09-09T17:33:56;19.50;70.30
69895;DHT22;57172;52.034;5.090;2022-09-09T17:36:28;19.50;70.40
69895;DHT22;57172;52.034;5.090;2022-09-09T17:38:55;19.40;70.60
69895;DHT22;57172;52.034;5.090;2022-09-09T17:41:25;19.40;70.90
69895;DHT22;57172;52.034;5.090;2022-09-09T17:43:53;19.30;71.10
69895;DHT22;57172;52.034;5.090;2022-09-09T17:46:26;19.30;71.50
69895;DHT22;57172;52.034;5.090;2022-09-09T17:48:58;19.20;71.70
69895;DHT22;57172;52.034;5.090;2022-09-09T17:51:27;19.20;72.10
69895;DHT22;57172;52.034;5.090;2022-09-09T17:53:59;19.00;72.60
69895;DHT22;57172;52.034;5.090;2022-09-09T17:56:28;18.70;73.00
69895;DHT22;57172;52.034;5.090;2022-09-09T17:58:58;18.40;74.20
69895;DHT22;57172;52.034;5.090;2022-09-09T18:01:27;18.10;75.10
69895;DHT22;57172;52.034;5.090;2022-09-09T18:03:56;18.00;75.90
69895;DHT22;57172;52.034;5.090;2022-09-09T18:06:25;17.90;76.40
69895;DHT22;57172;52.034;5.090;2022-09-09T18:08:58;17.80;76.70